International Virtual Aviation Organisation

Russian Federation and Kazakhstan MCD

 

Карточка аэропорта UUOO

Внимание!
Информация на этой странице в стадии наполнения.
Если вы не увидели какой-то информации, или заметили неточность - пожалуйста сообщите нам!
Спасибо!
Команда RU-STAFF
Название аэропортаЧертовицкое
Название аэропорта (англ.)Chertovitskoye
Превышение515 ft. (157 m.)
Координаты51°48.09', 39°13.788'
Высота перехода600 m
Эшелон переходаQFE>=746mm:FL40;QFE<746=>719:FL50;
Коды ответчика2750-2757
Зона ОрВДМосква РПИ (UUWV)
Данные METARUUOO 281400Z 14004MPS 3300 BR OVC002 05/05 Q1022 R12/290250 NOSIG RMK QBB080 QFE752
Проноз погоды (TAF)NODATA
NOTAMshow/hide NOTAM
AWOS   TABLE

Информация о ВПП

ВПП Длина ВПП (м.) Покрытие Курс ВПП Частота ILS
302300Асфальтобетон302111.9
122300Асфальтобетон122 

Диспетчерские позиции

Позывной Наименование органа УВД Частота
UUOO_APPВоронеж-Подход125.9
UUOO_TWRВоронеж-Вышка118.3



Спутниковое изображение